Time;durP1;ratioP1;P1;durP2;ratioP2;P2;SDS_P1;SDS_P2;PMS_P1;PMS_P2;Temp;Humidity;BMP_temperature;BMP_pressure;BME280_temperature;BME280_humidity;BME280_pressure;Samples;Min_cycle;Max_cycle;Signal;HPM_P1;HPM_P2
2023/11/11 00:00:14;;;;;;;;;3.50;3.50;;;;;11.86;77.25;100296.53;5072623;28;45306;-63
2023/11/11 00:02:40;;;;;;;;;5.00;4.00;;;;;11.86;77.25;100299.19;5060921;28;45375;-63
2023/11/11 00:05:05;;;;;;;;;3.50;3.50;;;;;11.82;77.21;100294.06;5075907;28;45344;-63
2023/11/11 00:07:31;;;;;;;;;5.00;4.00;;;;;11.72;77.13;100293.59;5065714;27;45539;-63
2023/11/11 00:09:57;;;;;;;;;3.75;3.00;;;;;11.74;77.12;100301.53;5074054;28;45638;-63
2023/11/11 00:12:23;;;;;;;;;1.75;1.00;;;;;11.69;77.13;100301.75;5060866;28;45368;-63
2023/11/11 00:14:50;;;;;;;;;5.00;4.00;;;;;11.66;77.13;100310.78;5060797;28;45323;-63
2023/11/11 00:17:15;;;;;;;;;3.75;3.25;;;;;11.67;77.55;100312.50;5063185;28;45391;-63
2023/11/11 00:19:42;;;;;;;;;2.75;2.75;;;;;11.72;77.62;100314.13;5059977;28;45488;-63
2023/11/11 00:22:10;;;;;;;;;3.25;3.25;;;;;11.64;77.81;100295.72;5076221;28;45657;-63
2023/11/11 00:24:35;;;;;;;;;3.25;1.75;;;;;11.69;77.54;100309.75;5060650;28;45474;-63
2023/11/11 00:27:01;;;;;;;;;4.50;3.00;;;;;11.70;77.67;100313.31;5063942;28;45419;-63
2023/11/11 00:29:26;;;;;;;;;2.25;2.25;;;;;11.70;77.45;100316.84;5067883;28;46208;-63
2023/11/11 00:31:51;;;;;;;;;3.00;2.25;;;;;11.71;77.78;100315.94;5080521;27;45519;-63
2023/11/11 00:34:18;;;;;;;;;2.50;2.50;;;;;11.72;77.58;100314.13;5065194;28;45498;-63
2023/11/11 00:36:45;;;;;;;;;2.75;2.00;;;;;11.71;77.69;100309.69;5061454;28;45442;-63
2023/11/11 00:39:11;;;;;;;;;6.50;3.00;;;;;11.68;77.75;100305.38;5062614;28;46243;-63
2023/11/11 00:41:38;;;;;;;;;2.00;2.00;;;;;11.68;77.98;100305.38;5071305;27;45485;-63
2023/11/11 00:44:09;;;;;;;;;3.00;2.50;;;;;11.74;77.92;100313.09;5074980;28;45371;-63
2023/11/11 00:46:37;;;;;;;;;3.00;3.00;;;;;11.70;77.59;100297.28;5069103;27;45326;-63
2023/11/11 00:49:03;;;;;;;;;4.00;2.00;;;;;11.78;77.67;100309.38;5073971;28;47251;-62
2023/11/11 00:51:28;;;;;;;;;2.25;2.00;;;;;11.72;77.63;100300.75;5060320;28;45841;-63
2023/11/11 00:53:53;;;;;;;;;4.00;3.00;;;;;11.80;77.58;100322.66;5061905;28;62239;-63
2023/11/11 00:56:20;;;;;;;;;2.25;2.25;;;;;11.70;77.67;100305.31;5070702;28;69838;-63
2023/11/11 00:58:46;;;;;;;;;1.75;1.75;;;;;11.72;77.36;100306.94;5062275;28;46203;-63
2023/11/11 01:01:11;;;;;;;;;3.75;3.75;;;;;11.78;77.37;100313.84;5059540;27;72691;-63
2023/11/11 01:03:36;;;;;;;;;6.00;2.00;;;;;11.79;77.67;100311.09;5059923;28;45382;-63
2023/11/11 01:06:01;;;;;;;;;4.00;2.50;;;;;11.81;77.37;100313.69;5065267;28;52329;-64
2023/11/11 01:08:27;;;;;;;;;5.00;3.00;;;;;11.79;77.24;100315.56;5064369;27;46048;-63
2023/11/11 01:10:52;;;;;;;;;2.00;2.00;;;;;11.75;77.04;100306.81;5071352;27;45576;-63
2023/11/11 01:13:19;;;;;;;;;3.00;0.00;;;;;11.71;77.12;100307.91;5062083;28;45365;-63
2023/11/11 01:15:45;;;;;;;;;4.75;3.00;;;;;11.68;77.55;100308.03;5073908;27;45397;-63
2023/11/11 01:18:10;;;;;;;;;2.00;2.00;;;;;11.77;77.49;100325.47;5063593;27;45820;-63
2023/11/11 01:20:35;;;;;;;;;2.25;2.25;;;;;11.72;77.32;100322.13;5061890;28;45409;-63
2023/11/11 01:23:01;;;;;;;;;4.00;3.00;;;;;11.64;77.34;100325.13;5078831;28;45462;-63
2023/11/11 01:25:26;;;;;;;;;3.00;3.00;;;;;11.62;77.76;100321.66;5070771;27;45415;-63
2023/11/11 01:27:52;;;;;;;;;2.50;2.00;;;;;11.58;77.42;100312.06;5062146;28;47566;-63
2023/11/11 01:30:19;;;;;;;;;3.00;1.50;;;;;11.59;77.42;100327.13;5070533;28;46010;-63
2023/11/11 01:32:45;;;;;;;;;2.25;2.00;;;;;11.58;77.55;100330.78;5074621;28;45352;-63
2023/11/11 01:35:11;;;;;;;;;4.25;2.00;;;;;11.54;77.83;100323.81;5059507;28;45568;-63
2023/11/11 01:37:36;;;;;;;;;3.00;2.75;;;;;11.62;77.89;100348.41;5060307;28;46420;-63
2023/11/11 01:40:01;;;;;;;;;2.00;2.00;;;;;11.62;77.62;100338.56;5069994;28;66979;-63
2023/11/11 01:42:27;;;;;;;;;1.00;1.00;;;;;11.53;77.70;100314.91;5063534;28;45492;-63
2023/11/11 01:44:54;;;;;;;;;1.50;1.50;;;;;11.60;78.02;100332.44;5079450;27;45507;-63
2023/11/11 01:47:20;;;;;;;;;3.25;2.25;;;;;11.61;77.67;100331.50;5074609;27;45531;-63
2023/11/11 01:49:46;;;;;;;;;2.00;1.00;;;;;11.55;77.44;100321.06;5069627;27;45366;-63
2023/11/11 01:52:12;;;;;;;;;1.50;1.00;;;;;11.66;77.50;100333.94;5059310;28;45475;-63
2023/11/11 01:54:38;;;;;;;;;2.00;2.00;;;;;11.58;77.77;100320.94;5059296;28;45436;-63
2023/11/11 01:57:07;;;;;;;;;1.00;1.00;;;;;11.55;77.76;100315.72;5063794;28;45628;-63
2023/11/11 01:59:34;;;;;;;;;1.50;1.50;;;;;11.62;77.58;100327.00;5067802;28;45661;-63
2023/11/11 02:02:00;;;;;;;;;1.50;1.00;;;;;11.60;77.57;100329.75;5072581;28;45428;-63
2023/11/11 02:04:26;;;;;;;;;0.00;0.00;;;;;11.56;77.61;100338.84;5059215;28;45394;-63
2023/11/11 02:06:52;;;;;;;;;2.75;1.00;;;;;11.50;77.28;100342.63;5062420;27;46770;-62
2023/11/11 02:09:18;;;;;;;;;4.00;2.00;;;;;11.48;77.89;100332.97;5064903;28;61840;-63
2023/11/11 02:11:47;;;;;;;;;1.25;1.00;;;;;11.46;77.52;100340.16;5059184;28;45758;-63
2023/11/11 02:14:13;;;;;;;;;1.25;1.25;;;;;11.42;77.73;100338.56;5058933;28;45374;-63
2023/11/11 02:16:39;;;;;;;;;1.00;1.00;;;;;11.38;77.59;100339.63;5060993;28;45426;-63
2023/11/11 02:19:04;;;;;;;;;1.50;1.00;;;;;11.22;77.94;100323.38;5059047;28;45554;-63
2023/11/11 02:21:31;;;;;;;;;1.25;1.25;;;;;11.28;77.65;100333.81;5058814;28;45434;-63
2023/11/11 02:23:59;;;;;;;;;1.00;1.00;;;;;11.25;77.88;100336.59;5058869;28;45490;-63
2023/11/11 02:26:24;;;;;;;;;1.25;1.25;;;;;11.26;78.04;100341.00;5062198;28;45281;-63
2023/11/11 02:28:51;;;;;;;;;4.00;2.00;;;;;11.20;78.38;100331.44;5069185;27;45334;-63
2023/11/11 02:31:16;;;;;;;;;2.75;1.00;;;;;11.24;78.11;100343.75;5074419;28;45407;-63
2023/11/11 02:33:43;;;;;;;;;0.00;0.00;;;;;11.29;78.17;100347.09;5075711;27;45318;-63
2023/11/11 02:36:09;;;;;;;;;1.00;1.00;;;;;11.22;78.67;100329.56;5072491;28;45552;-63
2023/11/11 02:38:35;;;;;;;;;1.00;1.00;;;;;11.21;78.23;100327.84;5067757;27;45414;-63
2023/11/11 02:41:00;;;;;;;;;2.00;1.00;;;;;11.26;77.91;100341.00;5064405;28;45319;-63
2023/11/11 02:43:26;;;;;;;;;1.00;1.00;;;;;11.24;78.21;100350.88;5075933;27;56263;-63
2023/11/11 02:45:52;;;;;;;;;1.00;1.00;;;;;11.17;78.47;100346.72;5077202;28;48041;-63
2023/11/11 02:48:17;;;;;;;;;3.00;1.75;;;;;11.20;78.32;100358.16;5073844;28;45239;-63
2023/11/11 02:50:43;;;;;;;;;1.00;1.00;;;;;11.16;78.47;100353.88;5076397;28;45443;-63
2023/11/11 02:53:08;;;;;;;;;2.00;2.00;;;;;11.12;78.19;100361.13;5073686;28;45685;-63
2023/11/11 02:55:34;;;;;;;;;1.00;1.00;;;;;11.05;78.40;100353.44;5063739;27;45228;-63
2023/11/11 02:57:59;;;;;;;;;2.25;2.25;;;;;11.07;78.69;100360.44;5066201;28;45290;-63
2023/11/11 03:00:25;;;;;;;;;1.00;1.00;;;;;11.01;78.84;100355.38;5075674;28;45331;-63
2023/11/11 03:02:50;;;;;;;;;1.50;1.00;;;;;11.06;78.56;100361.41;5061895;28;45592;-63
2023/11/11 03:05:16;;;;;;;;;2.00;1.00;;;;;11.02;78.65;100356.22;5066514;28;45559;-63
2023/11/11 03:07:41;;;;;;;;;0.75;0.75;;;;;11.09;78.77;100369.28;5067843;27;45422;-62
2023/11/11 03:10:09;;;;;;;;;2.50;2.00;;;;;11.11;79.06;100372.75;5075646;28;45377;-63
2023/11/11 03:12:35;;;;;;;;;4.75;3.00;;;;;11.05;78.82;100370.34;5061821;28;45347;-62
2023/11/11 03:15:01;;;;;;;;;1.50;1.50;;;;;11.02;78.52;100369.59;5061669;28;46081;-63
2023/11/11 03:17:30;;;;;;;;;2.00;2.00;;;;;10.94;78.37;100362.75;5063017;28;45384;-63
2023/11/11 03:20:03;;;;;;;;;0.50;0.50;;;;;10.97;78.59;100364.44;5061776;28;45460;-63
2023/11/11 03:22:28;;;;;;;;;4.00;2.50;;;;;10.90;78.64;100365.63;5061727;28;45626;-63
2023/11/11 03:24:54;;;;;;;;;4.00;1.00;;;;;10.88;78.74;100373.69;5060654;28;68887;-62
2023/11/11 03:27:19;;;;;;;;;2.00;2.00;;;;;10.89;78.72;100380.78;5071502;28;45387;-62
2023/11/11 03:29:44;;;;;;;;;3.00;1.75;;;;;10.73;78.89;100358.28;5066140;28;56484;-63
2023/11/11 03:32:09;;;;;;;;;3.00;3.00;;;;;10.89;78.86;100391.44;5070198;27;45286;-63
2023/11/11 03:34:35;;;;;;;;;0.75;0.75;;;;;10.78;79.03;100369.63;5074388;28;61577;-63
2023/11/11 03:37:01;;;;;;;;;1.75;1.75;;;;;10.86;79.33;100391.56;5068499;28;45455;-63
2023/11/11 03:39:26;;;;;;;;;1.00;1.00;;;;;10.90;78.97;100393.19;5067678;27;45769;-63
2023/11/11 03:41:51;;;;;;;;;2.00;1.25;;;;;10.80;79.38;100377.59;5069917;27;45904;-63
2023/11/11 03:44:17;;;;;;;;;2.50;2.50;;;;;10.79;79.42;100374.03;5077614;28;45477;-62
2023/11/11 03:46:42;;;;;;;;;2.00;2.00;;;;;10.77;79.56;100369.69;5070646;27;45392;-63
2023/11/11 03:49:08;;;;;;;;;3.50;2.00;;;;;10.81;79.70;100371.31;5063166;27;45392;-63
2023/11/11 03:51:33;;;;;;;;;3.00;2.25;;;;;10.94;79.25;100397.47;5061326;28;45464;-63
2023/11/11 03:53:58;;;;;;;;;1.50;1.50;;;;;10.93;79.51;100393.06;5072957;28;46980;-63
2023/11/11 03:56:24;;;;;;;;;2.75;2.75;;;;;10.85;78.96;100383.63;5070334;28;45396;-62
2023/11/11 03:58:50;;;;;;;;;1.00;1.00;;;;;10.90;79.63;100398.50;5073570;28;45432;-63
2023/11/11 04:01:16;;;;;;;;;2.50;2.00;;;;;10.92;79.57;100402.00;5060976;28;45408;-63
2023/11/11 04:03:43;;;;;;;;;2.75;2.00;;;;;10.82;79.20;100395.28;5065698;28;46278;-63
2023/11/11 04:06:12;;;;;;;;;1.50;1.50;;;;;10.81;78.96;100398.91;5061021;28;45605;-63
2023/11/11 04:08:37;;;;;;;;;1.00;1.00;;;;;10.86;79.60;100412.03;5064852;27;45339;-63
2023/11/11 04:11:06;;;;;;;;;1.00;0.00;;;;;10.82;79.55;100403.28;5070940;27;45365;-62
2023/11/11 04:13:33;;;;;;;;;2.00;2.00;;;;;10.78;79.16;100398.16;5060538;28;46482;-63
2023/11/11 04:15:58;;;;;;;;;1.00;1.00;;;;;10.85;79.39;100413.84;5068678;28;45848;-62
2023/11/11 04:18:23;;;;;;;;;0.75;0.75;;;;;10.84;79.84;100400.56;5061065;28;45345;-63
2023/11/11 04:20:49;;;;;;;;;1.00;1.00;;;;;10.74;79.29;100395.59;5070823;28;60374;-62
2023/11/11 04:23:14;;;;;;;;;1.00;1.00;;;;;10.81;79.33;100414.91;5074597;28;48588;-62
2023/11/11 04:25:40;;;;;;;;;4.00;1.75;;;;;10.83;79.64;100412.19;5068870;28;72108;-62
2023/11/11 04:28:06;;;;;;;;;1.00;1.00;;;;;10.80;79.21;100402.47;5063505;28;45520;-63
2023/11/11 04:30:31;;;;;;;;;0.75;0.75;;;;;10.85;79.84;100405.84;5065225;28;45480;-62
2023/11/11 04:32:56;;;;;;;;;2.00;2.00;;;;;10.76;79.24;100398.19;5079453;28;45466;-62
2023/11/11 04:35:22;;;;;;;;;2.00;2.00;;;;;10.87;79.51;100420.00;5067945;28;50345;-63
2023/11/11 04:37:49;;;;;;;;;2.25;1.00;;;;;10.78;79.16;100404.34;5067767;28;45418;-62
2023/11/11 04:40:14;;;;;;;;;1.00;1.00;;;;;10.86;79.32;100425.38;5072520;28;45551;-62
2023/11/11 04:42:41;;;;;;;;;1.75;1.75;;;;;10.80;79.17;100409.63;5064482;28;45420;-62
2023/11/11 04:45:06;;;;;;;;;3.50;2.00;;;;;10.81;79.03;100417.59;5080471;27;45389;-63
2023/11/11 04:47:32;;;;;;;;;1.00;1.00;;;;;10.82;79.01;100427.31;5068650;27;46683;-63
2023/11/11 04:49:57;;;;;;;;;1.00;1.00;;;;;10.79;78.80;100413.22;5067426;28;66900;-63
2023/11/11 04:52:24;;;;;;;;;2.25;2.00;;;;;10.75;79.11;100408.00;5060220;28;45342;-62
2023/11/11 04:54:49;;;;;;;;;3.75;1.00;;;;;10.75;78.79;100417.81;5060293;28;45470;-63
2023/11/11 04:57:15;;;;;;;;;1.00;1.00;;;;;10.84;78.60;100428.16;5067175;28;46631;-62
2023/11/11 04:59:40;;;;;;;;;1.00;1.00;;;;;10.80;79.26;100422.97;5060187;28;45501;-63
2023/11/11 05:02:05;;;;;;;;;1.25;1.25;;;;;10.75;78.57;100416.00;5059517;28;46183;-62
2023/11/11 05:04:31;;;;;;;;;1.75;1.00;;;;;10.73;78.83;100415.19;5062615;28;73347;-62
2023/11/11 05:06:57;;;;;;;;;2.25;1.00;;;;;10.69;78.98;100413.59;5073393;27;45516;-62
2023/11/11 05:09:22;;;;;;;;;1.75;1.75;;;;;10.74;79.03;100421.41;5069155;28;66001;-62
2023/11/11 05:11:48;;;;;;;;;2.75;2.00;;;;;10.74;78.95;100426.72;5062064;28;49353;-62
2023/11/11 05:14:17;;;;;;;;;1.25;1.25;;;;;10.64;78.48;100414.66;5059900;28;45323;-62
2023/11/11 05:16:50;;;;;;;;;1.25;1.25;;;;;10.69;78.98;100434.94;5062074;28;45354;-63
2023/11/11 05:19:20;;;;;;;;;2.00;1.00;;;;;10.69;78.67;100434.94;5069044;27;45357;-62
2023/11/11 05:21:46;;;;;;;;;2.00;2.00;;;;;10.65;78.66;100433.28;5071654;28;47261;-62
2023/11/11 05:24:12;;;;;;;;;0.75;0.75;;;;;10.61;78.58;100433.47;5071714;28;45504;-63
2023/11/11 05:26:41;;;;;;;;;1.75;1.00;;;;;10.53;78.81;100415.09;5065373;27;45499;-62
2023/11/11 05:29:08;;;;;;;;;1.00;1.00;;;;;10.65;79.27;100435.09;5077846;27;45476;-62
2023/11/11 05:31:34;;;;;;;;;1.25;1.25;;;;;10.65;78.94;100429.78;5072854;27;45407;-62
2023/11/11 05:34:00;;;;;;;;;4.00;2.75;;;;;10.68;78.85;100441.19;5079083;27;45428;-62
2023/11/11 05:36:26;;;;;;;;;3.50;2.00;;;;;10.63;78.74;100435.16;5058928;28;45527;-63
2023/11/11 05:38:53;;;;;;;;;1.00;1.00;;;;;10.66;78.80;100456.41;5067960;28;45536;-63
2023/11/11 05:41:22;;;;;;;;;1.00;1.00;;;;;10.65;78.51;100448.44;5059769;27;46146;-62
2023/11/11 05:43:48;;;;;;;;;3.00;1.00;;;;;10.66;78.88;100448.41;5071796;28;45260;-62
2023/11/11 05:46:13;;;;;;;;;3.00;1.50;;;;;10.58;78.51;100445.16;5073204;27;45569;-62
2023/11/11 05:48:44;;;;;;;;;2.00;1.00;;;;;10.60;78.57;100445.94;5071181;28;53961;-62
2023/11/11 05:51:10;;;;;;;;;1.50;1.50;;;;;10.65;78.80;100462.66;5059503;28;45462;-62
2023/11/11 05:53:35;;;;;;;;;1.75;0.50;;;;;10.66;78.95;100464.41;5059108;28;45326;-63
2023/11/11 05:56:01;;;;;;;;;4.00;2.25;;;;;10.60;79.04;100453.97;5065297;28;45372;-62
2023/11/11 05:58:26;;;;;;;;;2.75;1.00;;;;;10.58;78.78;100453.16;5064408;27;45375;-62
2023/11/11 06:00:52;;;;;;;;;1.00;1.00;;;;;10.64;78.86;100463.59;5057208;28;59126;-62
2023/11/11 06:03:18;;;;;;;;;3.00;1.75;;;;;10.56;78.59;100455.00;5066555;28;45376;-62
2023/11/11 06:05:45;;;;;;;;;2.75;1.75;;;;;10.57;78.28;100454.06;5067021;28;45436;-62
2023/11/11 06:08:11;;;;;;;;;4.00;1.00;;;;;10.67;78.59;100471.47;5063873;27;45561;-62
2023/11/11 06:10:37;;;;;;;;;1.00;1.00;;;;;10.57;78.05;100460.28;5072448;28;45323;-62
2023/11/11 06:13:05;;;;;;;;;1.00;1.00;;;;;10.68;78.25;100481.25;5057770;28;45505;-62
2023/11/11 06:15:35;;;;;;;;;2.00;2.00;;;;;10.63;78.82;100472.53;5070715;28;45366;-62
2023/11/11 06:18:01;;;;;;;;;1.75;1.75;;;;;10.66;78.62;100483.09;5071996;28;45475;-62
2023/11/11 06:20:26;;;;;;;;;2.00;2.00;;;;;10.60;78.40;100483.31;5058886;28;46212;-62
2023/11/11 06:22:53;;;;;;;;;1.50;1.00;;;;;10.64;78.09;100487.63;5058612;28;51057;-63
2023/11/11 06:25:19;;;;;;;;;2.25;2.00;;;;;10.60;78.49;100483.31;5063933;28;45516;-62
2023/11/11 06:27:45;;;;;;;;;2.75;2.75;;;;;10.58;78.39;100485.19;5076446;27;45402;-62
2023/11/11 06:30:11;;;;;;;;;1.00;1.00;;;;;10.47;78.40;100477.53;5064955;28;46305;-62
2023/11/11 06:32:37;;;;;;;;;3.00;2.25;;;;;10.57;78.21;100491.44;5067051;27;45313;-62
2023/11/11 06:35:04;;;;;;;;;1.75;1.25;;;;;10.50;78.33;100485.44;5064870;27;45480;-62
2023/11/11 06:37:29;;;;;;;;;1.00;1.00;;;;;10.57;78.33;100486.09;5064729;28;45322;-63
2023/11/11 06:39:54;;;;;;;;;1.50;1.50;;;;;10.56;78.64;100487.03;5066456;28;45355;-62
2023/11/11 06:42:19;;;;;;;;;2.00;1.00;;;;;10.56;77.86;100487.91;5066354;28;73377;-62
2023/11/11 06:44:45;;;;;;;;;1.00;1.00;;;;;10.57;77.85;100489.66;5078621;27;45337;-62
2023/11/11 06:47:15;;;;;;;;;1.00;1.00;;;;;10.50;77.99;100481.91;5064061;28;58075;-62
2023/11/11 06:49:40;;;;;;;;;1.75;1.00;;;;;10.54;78.56;100492.44;5066712;28;45452;-62
2023/11/11 06:52:05;;;;;;;;;4.50;1.50;;;;;10.40;78.08;100476.03;5058720;28;45490;-63
2023/11/11 06:54:31;;;;;;;;;2.50;1.00;;;;;10.51;78.43;100497.88;5066571;28;47220;-62
2023/11/11 06:56:57;;;;;;;;;1.50;1.00;;;;;10.40;78.80;100488.50;5058697;28;45579;-62
2023/11/11 06:59:22;;;;;;;;;2.25;2.00;;;;;10.48;78.75;100497.13;5059326;28;45712;-62
2023/11/11 07:01:47;;;;;;;;;2.00;2.00;;;;;10.53;78.49;100503.16;5061124;28;45265;-62
2023/11/11 07:04:12;;;;;;;;;0.25;0.25;;;;;10.48;78.43;100481.97;5068593;28;62325;-62
2023/11/11 07:06:38;;;;;;;;;1.50;1.50;;;;;10.61;78.14;100506.44;5058183;28;45216;-63
2023/11/11 07:09:03;;;;;;;;;1.00;1.00;;;;;10.56;78.36;100497.72;5075527;28;46024;-63
2023/11/11 07:11:28;;;;;;;;;1.00;0.50;;;;;10.62;78.21;100505.47;5071210;27;45280;-63
2023/11/11 07:13:55;;;;;;;;;2.00;1.25;;;;;10.63;78.32;100504.56;5061214;28;45388;-63
2023/11/11 07:16:20;;;;;;;;;1.00;1.00;;;;;10.65;78.17;100510.72;5066930;28;45251;-63
2023/11/11 07:18:48;;;;;;;;;1.25;1.25;;;;;10.71;78.08;100515.84;5068901;28;46893;-63
2023/11/11 07:21:21;;;;;;;;;3.50;1.75;;;;;10.69;78.27;100507.03;5073602;27;45659;-64
2023/11/11 07:23:47;;;;;;;;;1.50;1.00;;;;;10.75;78.05;100528.13;5059750;28;45492;-64
2023/11/11 07:26:15;;;;;;;;;2.75;2.75;;;;;10.71;78.04;100512.31;5067244;28;45373;-64
2023/11/11 07:28:41;;;;;;;;;1.00;1.00;;;;;10.77;78.46;100524.53;5063379;28;47205;-64
2023/11/11 07:31:07;;;;;;;;;1.00;1.00;;;;;10.79;78.19;100530.69;5070806;28;45398;-64
2023/11/11 07:33:33;;;;;;;;;1.00;1.00;;;;;10.76;78.49;100526.34;5078450;27;45435;-64
2023/11/11 07:35:58;;;;;;;;;1.75;1.00;;;;;10.80;78.68;100529.78;5077594;27;45447;-64
2023/11/11 07:38:24;;;;;;;;;3.00;1.25;;;;;10.82;78.69;100528.78;5075420;28;48798;-64
2023/11/11 07:40:49;;;;;;;;;0.00;0.00;;;;;10.83;78.43;100535.00;5073386;28;68673;-64
2023/11/11 07:43:14;;;;;;;;;1.00;1.00;;;;;10.81;78.56;100544.84;5065473;28;58559;-64
2023/11/11 07:45:39;;;;;;;;;2.50;1.75;;;;;10.80;78.45;100554.66;5065027;28;71313;-64
2023/11/11 07:48:05;;;;;;;;;1.25;1.00;;;;;10.90;78.06;100565.88;5075013;28;75595;-64
2023/11/11 07:50:31;;;;;;;;;2.00;2.00;;;;;10.91;78.29;100568.50;5067231;27;45318;-64
2023/11/11 07:52:56;;;;;;;;;2.25;1.50;;;;;10.88;78.35;100551.72;5065391;28;45644;-64
2023/11/11 07:55:21;;;;;;;;;3.50;1.00;;;;;10.94;78.91;100571.06;5073419;28;45303;-64
2023/11/11 07:57:47;;;;;;;;;1.00;1.00;;;;;10.80;78.72;100544.00;5068801;28;45410;-64
2023/11/11 08:00:17;;;;;;;;;1.25;1.25;;;;;10.94;78.54;100571.06;5066198;27;73127;-64
2023/11/11 08:02:42;;;;;;;;;3.00;2.00;;;;;10.90;78.96;100577.44;5067012;28;45260;-64
2023/11/11 08:05:09;;;;;;;;;0.50;0.50;;;;;10.92;78.88;100572.91;5066137;27;45540;-65
2023/11/11 08:07:34;;;;;;;;;2.00;2.00;;;;;11.02;78.71;100588.59;5064419;27;47271;-64
2023/11/11 08:10:00;;;;;;;;;2.50;1.25;;;;;10.93;79.09;100568.47;5075577;28;56606;-64
2023/11/11 08:12:25;;;;;;;;;2.75;1.25;;;;;11.06;79.37;100583.09;5067479;27;45530;-64
2023/11/11 08:14:52;;;;;;;;;2.00;1.00;;;;;10.97;79.41;100562.06;5060651;28;55317;-65
2023/11/11 08:17:17;;;;;;;;;0.00;0.00;;;;;11.02;79.61;100583.25;5059355;28;46808;-64
2023/11/11 08:19:42;;;;;;;;;1.00;1.00;;;;;11.04;80.02;100584.97;5072505;28;45650;-64
2023/11/11 08:22:09;;;;;;;;;2.00;2.00;;;;;11.02;80.28;100575.25;5065675;28;45397;-65
2023/11/11 08:24:36;;;;;;;;;0.75;0.75;;;;;11.07;80.54;100584.81;5059677;28;45501;-64
2023/11/11 08:27:03;;;;;;;;;2.50;2.00;;;;;11.08;80.79;100588.38;5062688;28;45719;-65
2023/11/11 08:29:29;;;;;;;;;1.00;1.00;;;;;11.09;80.61;100582.09;5059928;28;45680;-66
2023/11/11 08:31:54;;;;;;;;;1.25;1.25;;;;;11.00;80.66;100569.97;5073873;28;45343;-66
2023/11/11 08:34:25;;;;;;;;;1.25;1.00;;;;;11.09;81.05;100583.00;5073150;28;45359;-66
2023/11/11 08:36:51;;;;;;;;;2.00;0.50;;;;;11.11;81.11;100582.94;5060334;28;46213;-66
2023/11/11 08:39:16;;;;;;;;;1.75;1.75;;;;;11.11;81.16;100578.47;5075070;28;45447;-66
2023/11/11 08:41:42;;;;;;;;;1.75;1.00;;;;;11.08;81.45;100572.38;5069565;27;45477;-63
2023/11/11 08:44:08;;;;;;;;;0.25;0.25;;;;;11.15;81.21;100584.56;5070060;27;45338;-64
2023/11/11 08:46:33;;;;;;;;;3.00;2.00;;;;;11.18;81.21;100584.44;5068942;27;46833;-64
2023/11/11 08:48:58;;;;;;;;;2.00;1.00;;;;;11.15;81.46;100576.53;5069852;28;59449;-64
2023/11/11 08:51:24;;;;;;;;;0.50;0.50;;;;;11.17;81.36;100568.47;5069543;27;69282;-64
2023/11/11 08:53:50;;;;;;;;;1.25;1.25;;;;;11.17;81.35;100571.13;5070643;27;45536;-64
2023/11/11 08:56:15;;;;;;;;;1.00;1.00;;;;;11.17;81.70;100572.00;5071894;27;47397;-64
2023/11/11 08:58:41;;;;;;;;;2.00;0.75;;;;;11.19;81.31;100570.13;5065613;27;45712;-64
2023/11/11 09:01:07;;;;;;;;;1.50;1.25;;;;;11.29;81.36;100587.59;5064859;28;45391;-64
2023/11/11 09:03:32;;;;;;;;;3.50;1.00;;;;;11.26;81.13;100579.69;5077113;27;45348;-64
2023/11/11 09:05:57;;;;;;;;;0.00;0.00;;;;;11.24;81.11;100577.97;5063599;28;68049;-64
2023/11/11 09:08:24;;;;;;;;;1.00;1.00;;;;;11.30;81.01;100588.44;5067713;27;72007;-64
2023/11/11 09:10:49;;;;;;;;;3.00;3.00;;;;;11.37;81.24;100591.75;5065540;28;45316;-64
2023/11/11 09:13:16;;;;;;;;;2.00;2.00;;;;;11.36;81.61;100598.91;5067714;27;45392;-64
2023/11/11 09:15:42;;;;;;;;;1.25;1.25;;;;;11.31;81.35;100577.72;5070171;27;45434;-64
2023/11/11 09:18:07;;;;;;;;;2.00;2.00;;;;;11.40;81.86;100580.97;5070009;27;45464;-64
2023/11/11 09:20:33;;;;;;;;;4.00;3.00;;;;;11.31;81.55;100569.69;5076922;28;45339;-64
2023/11/11 09:22:59;;;;;;;;;4.00;0.50;;;;;11.37;81.33;100575.72;5073468;27;45402;-64
2023/11/11 09:25:24;;;;;;;;;3.25;2.25;;;;;11.44;81.39;100586.13;5067185;27;45449;-64
2023/11/11 09:27:49;;;;;;;;;3.00;3.00;;;;;11.46;81.59;100570.91;5062441;27;45391;-64
2023/11/11 09:30:17;;;;;;;;;4.00;2.75;;;;;11.48;81.49;100562.81;5074837;27;45552;-64
2023/11/11 09:32:43;;;;;;;;;1.50;1.00;;;;;11.57;81.39;100574.94;5064717;27;45555;-64
2023/11/11 09:35:13;;;;;;;;;2.00;1.00;;;;;11.57;80.70;100574.94;5074557;27;47092;-64
2023/11/11 09:37:40;;;;;;;;;1.00;1.00;;;;;11.60;81.12;100572.16;5064554;27;45378;-64
2023/11/11 09:40:11;;;;;;;;;2.00;1.00;;;;;11.67;81.14;100579.00;5064186;27;45533;-65
2023/11/11 09:42:37;;;;;;;;;2.75;1.75;;;;;11.64;80.75;100574.66;5074728;28;45613;-65
2023/11/11 09:45:06;;;;;;;;;2.00;2.00;;;;;11.68;81.39;100578.09;5073478;28;46226;-65
2023/11/11 09:47:40;;;;;;;;;0.50;0.50;;;;;11.74;80.87;100579.63;5072913;27;45290;-65
2023/11/11 09:50:06;;;;;;;;;2.50;1.25;;;;;11.70;80.74;100576.22;5068998;28;45827;-65
2023/11/11 09:52:32;;;;;;;;;1.00;1.00;;;;;11.76;80.68;100575.97;5074078;27;45266;-65
2023/11/11 09:54:59;;;;;;;;;3.00;1.50;;;;;11.79;80.27;100578.50;5059414;27;45663;-65
2023/11/11 09:57:25;;;;;;;;;3.00;2.00;;;;;11.78;80.66;100576.78;5073536;27;45857;-65
2023/11/11 09:59:51;;;;;;;;;2.50;2.50;;;;;11.69;80.34;100566.44;5065636;27;46644;-63
2023/11/11 10:02:17;;;;;;;;;1.00;1.00;;;;;11.76;80.57;100578.66;5074125;27;45392;-64
2023/11/11 10:04:42;;;;;;;;;1.00;0.75;;;;;11.76;79.95;100577.75;5064394;28;45660;-65
2023/11/11 10:07:10;;;;;;;;;1.00;1.00;;;;;11.77;80.30;100583.06;5076047;27;45415;-62
2023/11/11 10:09:36;;;;;;;;;2.00;0.50;;;;;11.86;79.86;100589.81;5071774;27;45561;-63
2023/11/11 10:12:03;;;;;;;;;3.00;1.00;;;;;11.77;80.42;100571.50;5065097;27;45447;-64
2023/11/11 10:14:32;;;;;;;;;2.50;1.00;;;;;11.86;79.96;100573.78;5075197;27;46469;-63
2023/11/11 10:17:00;;;;;;;;;1.25;1.00;;;;;11.85;79.97;100564.91;5070466;27;46339;-65
2023/11/11 10:19:26;;;;;;;;;1.00;1.00;;;;;11.97;80.06;100587.63;5063081;27;45393;-64
2023/11/11 10:21:59;;;;;;;;;0.75;0.75;;;;;11.95;79.66;100583.28;5056680;28;45340;-63
2023/11/11 10:24:25;;;;;;;;;1.00;1.00;;;;;12.05;79.60;100588.19;5070390;27;47401;-64
2023/11/11 10:26:52;;;;;;;;;1.00;1.00;;;;;12.02;80.26;100582.09;5065026;28;45589;-63
2023/11/11 10:29:17;;;;;;;;;1.00;1.00;;;;;12.12;79.73;100588.81;5074087;27;45743;-64
2023/11/11 10:31:48;;;;;;;;;1.00;1.00;;;;;12.15;80.26;100588.69;5070967;28;45946;-64
2023/11/11 10:34:13;;;;;;;;;2.25;0.75;;;;;12.09;80.07;100578.22;5073289;27;46798;-63
2023/11/11 10:36:42;;;;;;;;;1.00;1.00;;;;;12.24;80.01;100587.44;5062443;27;45347;-61
2023/11/11 10:39:12;;;;;;;;;1.00;0.50;;;;;12.24;79.73;100592.78;5062606;27;45529;-61
2023/11/11 10:41:43;;;;;;;;;1.50;1.00;;;;;12.32;79.75;100595.16;5070978;27;45445;-64
2023/11/11 10:44:08;;;;;;;;;1.25;1.00;;;;;12.22;79.38;100573.25;5067905;27;45523;-63
2023/11/11 10:46:39;;;;;;;;;1.25;1.25;;;;;12.31;79.34;100588.94;5074630;28;46837;-63
2023/11/11 10:49:08;;;;;;;;;2.50;1.00;;;;;12.34;79.32;100594.13;5066326;28;45473;-64
2023/11/11 10:51:34;;;;;;;;;1.00;1.00;;;;;12.36;79.77;100591.38;5060871;28;45728;-64
2023/11/11 10:54:03;;;;;;;;;2.75;2.00;;;;;12.34;78.95;100588.78;5065478;28;46442;-66
2023/11/11 10:56:32;;;;;;;;;1.00;1.00;;;;;12.29;78.78;100560.47;5065062;27;46775;-66
2023/11/11 10:59:01;;;;;;;;;2.00;1.25;;;;;12.38;78.32;100584.19;5072636;27;45403;-65
2023/11/11 11:01:27;;;;;;;;;2.00;2.00;;;;;12.46;78.60;100582.03;5072338;27;45361;-65
2023/11/11 11:03:53;;;;;;;;;2.00;1.00;;;;;12.35;78.66;100562.91;5066575;27;46977;-65
2023/11/11 11:06:33;;;;;;;;;1.50;1.50;;;;;12.51;78.13;100581.84;5067593;27;45744;-65
2023/11/11 11:09:14;;;;;;;;;3.00;0.00;;;;;12.53;78.23;100579.97;5078799;27;45574;-65
2023/11/11 11:12:17;;;;;;;;;2.50;2.50;;;;;12.54;78.29;100573.69;5077416;27;45775;-65
2023/11/11 11:14:51;;;;;;;;;1.50;1.00;;;;;12.48;78.24;100558.75;5069693;28;47204;-65
2023/11/11 11:17:17;;;;;;;;;1.00;1.00;;;;;12.58;78.01;100581.53;5078136;27;45825;-65
2023/11/11 11:19:53;;;;;;;;;0.00;0.00;;;;;12.53;77.81;100569.25;5068771;28;45675;-64